Time;durP1;ratioP1;P1;durP2;ratioP2;P2;SDS_P1;SDS_P2;PMS_P1;PMS_P2;Temp;Humidity;BMP_temperature;BMP_pressure;BME280_temperature;BME280_humidity;BME280_pressure;Samples;Min_cycle;Max_cycle;Signal;HPM_P1;HPM_P2
2022/09/09 04:01:44;;;;;;;3.43;2.60;;;16.20;99.90;;;;;;5465046;22;20508;-61
2022/09/09 04:04:12;;;;;;;4.57;2.60;;;16.20;99.90;;;;;;5053824;28;20508;-61
2022/09/09 04:06:38;;;;;;;3.27;2.83;;;16.20;99.90;;;;;;5053779;28;20538;-61
2022/09/09 04:09:05;;;;;;;4.33;2.53;;;16.20;99.90;;;;;;5053703;28;20443;-61
2022/09/09 04:11:31;;;;;;;2.97;2.30;;;16.20;99.90;;;;;;5053616;28;20471;-61
2022/09/09 04:13:58;;;;;;;4.83;2.57;;;16.20;99.90;;;;;;5053533;28;20462;-61
2022/09/09 04:16:25;;;;;;;3.00;2.47;;;16.10;99.90;;;;;;5053703;28;20485;-61
2022/09/09 04:18:54;;;;;;;2.40;2.20;;;16.10;99.90;;;;;;5053610;28;20451;-61
2022/09/09 04:21:21;;;;;;;4.30;2.27;;;16.10;99.90;;;;;;5053906;28;20503;-61
2022/09/09 04:23:47;;;;;;;2.23;2.03;;;16.00;99.90;;;;;;5054281;28;20489;-61
2022/09/09 04:26:14;;;;;;;6.97;2.83;;;16.00;99.90;;;;;;5054628;28;20451;-61
2022/09/09 04:28:41;;;;;;;3.70;2.40;;;16.00;99.90;;;;;;5053763;28;20447;-61
2022/09/09 04:31:09;;;;;;;3.80;2.27;;;16.10;99.90;;;;;;5054533;28;20482;-61
2022/09/09 04:33:37;;;;;;;6.53;2.80;;;16.10;99.90;;;;;;5053632;28;20451;-61
2022/09/09 04:36:05;;;;;;;4.97;2.43;;;16.20;99.90;;;;;;5054333;28;20451;-61
2022/09/09 04:38:32;;;;;;;4.00;2.40;;;16.20;99.90;;;;;;5053285;28;20454;-61
2022/09/09 04:40:59;;;;;;;4.03;2.40;;;16.30;99.90;;;;;;5053450;28;20478;-61
2022/09/09 04:43:30;;;;;;;2.37;1.73;;;16.30;99.90;;;;;;5053666;28;20501;-62
2022/09/09 04:45:57;;;;;;;2.10;1.90;;;16.30;99.90;;;;;;5053710;28;20435;-62
2022/09/09 04:48:25;;;;;;;5.23;2.53;;;16.30;99.90;;;;;;5054278;28;20451;-62
2022/09/09 04:50:56;;;;;;;3.60;2.00;;;16.20;99.90;;;;;;5053442;28;20471;-62
2022/09/09 04:53:25;;;;;;;3.77;2.20;;;16.20;99.90;;;;;;5053528;28;20542;-63
2022/09/09 04:55:51;;;;;;;3.87;1.77;;;16.20;99.90;;;;;;5053558;28;20505;-62
2022/09/09 04:58:18;;;;;;;2.10;1.90;;;16.20;99.90;;;;;;5053695;28;20512;-62
2022/09/09 05:00:46;;;;;;;2.37;1.70;;;16.20;99.90;;;;;;5053378;28;20487;-63
2022/09/09 05:03:12;;;;;;;3.10;1.90;;;16.20;99.90;;;;;;5053837;28;20439;-64
2022/09/09 05:05:39;;;;;;;4.63;2.23;;;16.30;99.90;;;;;;5053397;28;20455;-62
2022/09/09 05:08:08;;;;;;;5.60;2.20;;;16.40;99.90;;;;;;5053561;28;20875;-62
2022/09/09 05:10:38;;;;;;;1.90;1.80;;;16.50;99.90;;;;;;5053607;28;20463;-62
2022/09/09 05:13:06;;;;;;;2.67;2.03;;;16.50;99.90;;;;;;5053396;28;20917;-62
2022/09/09 05:15:33;;;;;;;2.93;2.00;;;16.50;99.90;;;;;;5053801;28;20457;-62
2022/09/09 05:18:02;;;;;;;4.20;2.50;;;16.50;99.90;;;;;;5053505;28;20522;-62
2022/09/09 05:20:29;;;;;;;4.30;2.43;;;16.50;99.90;;;;;;5053368;28;20475;-62
2022/09/09 05:22:57;;;;;;;2.93;2.00;;;16.60;99.90;;;;;;5053234;28;20450;-62
2022/09/09 05:25:24;;;;;;;2.23;1.83;;;16.70;99.90;;;;;;5055185;28;20477;-61
2022/09/09 05:27:53;;;;;;;3.97;2.13;;;16.70;99.90;;;;;;5057533;28;20546;-65
2022/09/09 05:30:20;;;;;;;3.67;2.00;;;16.70;99.90;;;;;;5057193;28;20495;-62
2022/09/09 05:32:48;;;;;;;4.10;1.70;;;16.90;99.90;;;;;;5057213;28;20451;-61
2022/09/09 05:35:16;;;;;;;4.17;2.00;;;17.00;99.90;;;;;;5056498;28;20941;-61
2022/09/09 05:37:42;;;;;;;4.83;2.20;;;17.10;99.90;;;;;;5056862;28;20451;-61
2022/09/09 05:40:10;;;;;;;5.07;2.00;;;17.10;99.90;;;;;;5056490;28;20883;-61
2022/09/09 05:42:38;;;;;;;2.50;1.60;;;17.10;99.90;;;;;;5056492;28;20796;-61
2022/09/09 05:45:08;;;;;;;2.57;1.80;;;17.10;99.90;;;;;;5056456;28;20462;-61
2022/09/09 05:47:35;;;;;;;5.40;2.90;;;17.10;99.90;;;;;;5056386;28;20542;-61
2022/09/09 05:50:02;;;;;;;3.43;1.80;;;17.20;99.90;;;;;;5056304;28;20455;-61
2022/09/09 05:52:28;;;;;;;3.83;2.00;;;17.30;99.90;;;;;;5056279;28;20475;-61
2022/09/09 05:54:56;;;;;;;3.50;1.87;;;17.50;99.90;;;;;;5056183;28;20458;-61
2022/09/09 05:57:23;;;;;;;5.17;2.60;;;17.60;99.90;;;;;;5056198;28;20478;-61
2022/09/09 05:59:50;;;;;;;3.37;1.90;;;17.60;99.90;;;;;;5056035;28;20856;-61
2022/09/09 06:02:18;;;;;;;5.27;2.17;;;17.70;99.90;;;;;;5056612;28;21014;-61
2022/09/09 06:04:44;;;;;;;4.50;2.40;;;17.90;99.90;;;;;;5055747;28;20455;-62
2022/09/09 06:07:11;;;;;;;5.27;1.83;;;18.00;99.90;;;;;;5055859;28;20508;-62
2022/09/09 06:09:38;;;;;;;4.10;2.00;;;18.10;99.90;;;;;;5055742;28;20451;-62
2022/09/09 06:12:05;;;;;;;3.97;2.00;;;18.10;99.90;;;;;;5055656;28;20478;-62
2022/09/09 06:14:32;;;;;;;4.00;2.10;;;18.10;99.90;;;;;;5055544;28;20873;-62
2022/09/09 06:16:58;;;;;;;4.50;2.27;;;18.20;99.90;;;;;;5055681;28;20532;-62
2022/09/09 06:19:26;;;;;;;2.63;1.70;;;18.30;99.90;;;;;;5055500;28;20450;-63
2022/09/09 06:21:53;;;;;;;2.13;2.03;;;18.30;99.90;;;;;;5055512;28;20475;-62
2022/09/09 06:24:20;;;;;;;4.47;2.50;;;18.30;99.90;;;;;;5056244;28;20508;-62
2022/09/09 06:26:46;;;;;;;7.20;2.03;;;18.30;99.90;;;;;;5055457;28;20943;-62
2022/09/09 06:29:13;;;;;;;4.87;2.30;;;18.30;99.90;;;;;;5055298;28;20509;-62
2022/09/09 06:31:41;;;;;;;2.07;1.90;;;18.20;99.90;;;;;;5055430;28;20521;-62
2022/09/09 06:34:09;;;;;;;3.00;1.97;;;18.10;99.90;;;;;;5055518;28;20443;-62
2022/09/09 06:36:39;;;;;;;3.43;2.37;;;18.10;99.90;;;;;;5055349;28;20458;-62
2022/09/09 06:39:07;;;;;;;4.20;2.23;;;18.10;99.90;;;;;;5055401;28;20504;-62
2022/09/09 06:41:34;;;;;;;4.37;2.23;;;18.10;99.90;;;;;;5055055;28;20483;-62
2022/09/09 06:44:01;;;;;;;7.13;2.30;;;18.10;99.90;;;;;;5055305;28;20455;-62
2022/09/09 06:46:29;;;;;;;5.60;2.37;;;18.10;99.90;;;;;;5055156;28;20457;-62
2022/09/09 06:48:58;;;;;;;2.50;1.70;;;18.10;99.90;;;;;;5055752;28;20791;-62
2022/09/09 06:51:27;;;;;;;3.23;2.13;;;18.20;99.90;;;;;;5055026;28;20559;-62
2022/09/09 06:53:57;;;;;;;3.33;1.90;;;18.20;99.90;;;;;;5054809;28;20937;-62
2022/09/09 06:56:26;;;;;;;2.30;1.87;;;18.30;99.90;;;;;;5054790;28;20443;-62
2022/09/09 06:58:54;;;;;;;4.20;2.30;;;18.40;99.90;;;;;;5055064;28;20542;-62
2022/09/09 07:01:23;;;;;;;5.07;1.50;;;18.40;99.90;;;;;;5054474;28;20490;-62
2022/09/09 07:03:52;;;;;;;3.47;2.40;;;18.50;99.90;;;;;;5054893;28;20501;-62
2022/09/09 07:06:20;;;;;;;4.93;1.77;;;18.70;99.90;;;;;;5054809;28;20455;-62
2022/09/09 07:08:51;;;;;;;5.60;2.10;;;18.70;99.90;;;;;;5054761;28;20489;-62
2022/09/09 07:11:20;;;;;;;8.73;2.10;;;18.90;99.90;;;;;;5054693;28;20467;-62
2022/09/09 07:13:47;;;;;;;2.40;2.10;;;18.90;99.90;;;;;;5054753;28;20451;-62
2022/09/09 07:16:16;;;;;;;3.00;1.70;;;19.10;99.90;;;;;;5054367;28;21017;-62
2022/09/09 07:18:43;;;;;;;6.47;2.17;;;19.20;99.90;;;;;;5054607;28;20455;-62
2022/09/09 07:21:11;;;;;;;3.17;1.77;;;19.40;99.90;;;;;;5054322;28;20483;-62
2022/09/09 07:23:39;;;;;;;10.47;1.60;;;19.70;99.90;;;;;;5054399;28;20521;-62
2022/09/09 07:26:10;;;;;;;3.63;1.70;;;19.90;99.90;;;;;;5054391;28;20570;-62
2022/09/09 07:28:38;;;;;;;3.47;1.20;;;20.00;99.90;;;;;;5054409;28;20444;-62
2022/09/09 07:31:06;;;;;;;3.20;1.53;;;20.20;99.90;;;;;;5054303;28;20468;-62
2022/09/09 07:33:35;;;;;;;3.10;1.50;;;20.40;99.90;;;;;;5054267;28;20451;-62
2022/09/09 07:36:07;;;;;;;2.43;1.00;;;20.40;99.90;;;;;;5054273;28;20528;-62
2022/09/09 07:38:39;;;;;;;3.63;1.00;;;20.50;99.90;;;;;;5054677;28;20538;-62
2022/09/09 07:41:08;;;;;;;2.80;1.30;;;20.70;99.90;;;;;;5054662;28;20489;-63
2022/09/09 07:43:35;;;;;;;4.00;1.30;;;20.80;99.90;;;;;;5055112;28;20450;-63
2022/09/09 07:46:03;;;;;;;3.60;1.43;;;21.00;99.90;;;;;;5055240;28;20450;-63
2022/09/09 07:48:30;;;;;;;4.83;1.60;;;21.10;99.90;;;;;;5054638;28;20452;-63
2022/09/09 07:51:06;;;;;;;1.43;1.20;;;21.30;99.90;;;;;;5054444;28;20474;-63
2022/09/09 07:53:33;;;;;;;1.37;0.80;;;21.40;99.90;;;;;;5055001;28;20461;-63
2022/09/09 07:56:04;;;;;;;1.83;1.13;;;21.60;99.90;;;;;;5054709;28;20454;-63
2022/09/09 07:58:30;;;;;;;4.10;1.50;;;21.80;99.90;;;;;;5055229;28;20471;-63
2022/09/09 08:00:57;;;;;;;1.80;1.40;;;22.00;99.90;;;;;;5054473;28;20486;-63
2022/09/09 08:03:25;;;;;;;1.90;1.10;;;22.10;99.90;;;;;;5054841;28;20524;-63
2022/09/09 08:05:52;;;;;;;1.90;1.20;;;22.90;99.90;;;;;;5055434;28;20477;-63
2022/09/09 08:08:19;;;;;;;1.20;1.10;;;23.90;99.90;;;;;;5054475;28;20960;-63
2022/09/09 08:10:46;;;;;;;1.10;1.00;;;25.00;99.90;;;;;;5054765;28;20468;-63
2022/09/09 08:13:12;;;;;;;1.73;1.27;;;26.30;98.30;;;;;;5054748;28;20455;-63
2022/09/09 08:15:39;;;;;;;1.53;1.23;;;27.20;94.10;;;;;;5054019;28;20458;-63
2022/09/09 08:18:06;;;;;;;1.97;1.30;;;27.40;92.30;;;;;;5054474;28;20490;-63
2022/09/09 08:20:36;;;;;;;1.17;0.93;;;27.30;90.80;;;;;;5053629;28;20483;-63
2022/09/09 08:23:02;;;;;;;3.30;1.10;;;27.30;90.70;;;;;;5053558;28;20816;-63
2022/09/09 08:25:29;;;;;;;1.60;0.90;;;27.10;90.40;;;;;;5053524;28;20817;-63
2022/09/09 08:27:56;;;;;;;6.03;1.50;;;27.40;89.40;;;;;;5053651;28;20458;-63
2022/09/09 08:30:23;;;;;;;2.77;1.33;;;28.00;88.20;;;;;;5053869;28;20562;-63
2022/09/09 08:32:50;;;;;;;1.20;1.10;;;28.80;82.50;;;;;;5053727;28;20458;-63
2022/09/09 08:35:17;;;;;;;3.57;1.07;;;29.60;80.60;;;;;;5053256;28;20508;-63
2022/09/09 08:37:45;;;;;;;2.57;1.20;;;30.10;75.70;;;;;;5053629;28;20455;-63
2022/09/09 08:40:22;;;;;;;1.40;1.20;;;29.70;75.30;;;;;;5053477;28;20492;-63
2022/09/09 08:42:51;;;;;;;2.33;1.10;;;29.20;76.20;;;;;;5053266;28;20982;-63
2022/09/09 08:45:26;;;;;;;4.10;1.30;;;28.60;76.90;;;;;;5053440;28;20446;-63
2022/09/09 08:48:09;;;;;;;2.70;1.00;;;28.00;78.90;;;;;;5053394;28;20453;-63
2022/09/09 08:50:38;;;;;;;4.57;1.53;;;28.40;80.40;;;;;;5053295;28;20471;-63
2022/09/09 08:53:14;;;;;;;1.80;1.00;;;29.10;79.30;;;;;;5053457;28;20451;-63
2022/09/09 08:55:48;;;;;;;2.10;1.10;;;30.10;72.80;;;;;;5053336;28;20443;-63
2022/09/09 08:58:17;;;;;;;2.00;1.10;;;30.70;69.90;;;;;;5053344;28;20435;-63
2022/09/09 09:01:16;;;;;;;2.10;0.83;;;31.50;68.40;;;;;;5054923;28;20544;-63
2022/09/09 09:03:50;;;;;;;2.20;1.20;;;32.20;64.00;;;;;;5041788;28;20538;-63
2022/09/09 09:06:27;;;;;;;2.73;1.40;;;32.70;64.10;;;;;;5056849;28;20898;-63
2022/09/09 09:09:03;;;;;;;2.03;1.20;;;32.70;61.90;;;;;;5057036;28;20443;-63
2022/09/09 09:11:37;;;;;;;2.00;1.13;;;32.60;59.90;;;;;;5056944;28;20512;-63
2022/09/09 09:14:10;;;;;;;2.60;1.63;;;32.40;59.40;;;;;;5057703;28;20431;-63
2022/09/09 09:16:43;;;;;;;3.27;1.90;;;32.10;59.70;;;;;;5056932;28;20435;-64
2022/09/09 09:19:15;;;;;;;2.00;1.00;;;31.80;56.70;;;;;;5056901;28;20447;-64
2022/09/09 09:21:45;;;;;;;2.27;2.07;;;31.70;56.20;;;;;;5056452;28;20482;-63
2022/09/09 09:24:19;;;;;;;0.80;0.80;;;31.50;56.80;;;;;;5056831;28;20858;-67
2022/09/09 09:26:46;;;;;;;1.83;1.00;;;30.90;57.30;;;;;;5056865;28;20867;-63
2022/09/09 09:29:16;;;;;;;1.60;1.07;;;29.90;58.30;;;;;;5056811;28;20804;-64
2022/09/09 09:31:47;;;;;;;2.23;1.00;;;28.90;59.40;;;;;;5056698;28;20473;-63
2022/09/09 09:34:14;;;;;;;1.40;1.00;;;27.90;61.70;;;;;;5056773;28;20441;-63
2022/09/09 09:36:44;;;;;;;1.07;0.90;;;27.00;64.10;;;;;;5056578;28;20462;-64
2022/09/09 09:39:11;;;;;;;2.30;1.00;;;26.40;66.50;;;;;;5057120;28;20477;-64
2022/09/09 09:41:42;;;;;;;5.13;1.57;;;26.00;68.60;;;;;;5056386;28;20885;-63
2022/09/09 09:44:24;;;;;;;2.00;1.03;;;25.50;71.10;;;;;;5056151;28;20909;-62
2022/09/09 09:46:51;;;;;;;2.63;1.53;;;24.90;73.10;;;;;;5056238;28;20945;-64
2022/09/09 09:49:18;;;;;;;3.57;1.43;;;24.70;72.70;;;;;;5056450;28;20458;-62
2022/09/09 09:51:45;;;;;;;2.10;1.13;;;24.80;73.50;;;;;;5056134;28;20551;-62
2022/09/09 09:54:23;;;;;;;3.13;1.20;;;25.30;75.80;;;;;;5056279;28;20490;-63
2022/09/09 09:56:51;;;;;;;3.00;1.13;;;26.30;75.50;;;;;;5056325;28;20500;-63
2022/09/09 09:59:23;;;;;;;4.13;1.27;;;27.40;74.10;;;;;;5056265;28;20455;-63
2022/09/09 10:01:50;;;;;;;1.60;1.20;;;28.30;70.70;;;;;;5055613;28;20482;-64
2022/09/09 10:04:20;;;;;;;3.63;1.20;;;29.30;66.00;;;;;;5056502;28;20479;-63
2022/09/09 10:06:47;;;;;;;2.90;1.20;;;30.00;63.70;;;;;;5055999;28;20501;-63
2022/09/09 10:09:23;;;;;;;1.53;1.10;;;30.30;61.20;;;;;;5055968;28;20455;-63
2022/09/09 10:11:58;;;;;;;1.50;1.00;;;30.80;59.40;;;;;;5056339;28;20470;-63
2022/09/09 10:14:35;;;;;;;3.20;1.20;;;31.20;57.40;;;;;;5055599;28;20799;-63
2022/09/09 10:17:16;;;;;;;1.77;1.00;;;31.80;56.40;;;;;;5055877;28;20446;-63
2022/09/09 10:19:56;;;;;;;1.93;0.83;;;32.30;55.10;;;;;;5056066;28;20435;-64
2022/09/09 10:22:28;;;;;;;1.33;0.83;;;32.80;55.60;;;;;;5055485;28;20891;-64
2022/09/09 10:25:18;;;;;;;4.50;0.93;;;33.50;52.10;;;;;;5055764;28;20441;-63
2022/09/09 10:28:00;;;;;;;2.50;1.20;;;33.40;50.70;;;;;;5056003;28;20439;-63
2022/09/09 10:30:34;;;;;;;1.93;0.80;;;33.60;50.70;;;;;;5055570;28;20496;-63
2022/09/09 10:33:08;;;;;;;2.97;1.20;;;33.40;51.20;;;;;;5055500;28;20490;-63
2022/09/09 10:35:39;;;;;;;1.60;0.93;;;33.60;50.40;;;;;;5055453;28;20431;-63
2022/09/09 10:38:17;;;;;;;1.00;0.70;;;33.30;50.60;;;;;;5055483;28;20444;-63
2022/09/09 10:41:01;;;;;;;0.80;0.73;;;33.20;51.30;;;;;;5055319;28;20471;-63
2022/09/09 10:43:53;;;;;;;1.30;0.90;;;33.30;51.10;;;;;;5055827;28;20435;-63
2022/09/09 10:46:30;;;;;;;3.77;1.40;;;32.90;51.60;;;;;;5052354;28;20446;-62
2022/09/09 10:49:12;;;;;;;2.60;1.00;;;32.70;51.60;;;;;;5055546;28;20442;-63
2022/09/09 10:51:45;;;;;;;2.27;1.20;;;31.70;51.80;;;;;;5055963;28;20470;-63
2022/09/09 10:54:35;;;;;;;1.03;0.73;;;30.90;54.70;;;;;;5055518;28;20436;-63
2022/09/09 10:57:14;;;;;;;2.10;1.03;;;30.30;55.40;;;;;;5056306;28;20446;-63
2022/09/09 10:59:49;;;;;;;1.80;1.30;;;29.80;56.50;;;;;;5055786;28;20514;-62
2022/09/09 11:02:22;;;;;;;5.63;1.20;;;29.00;58.00;;;;;;5054867;28;20536;-63
2022/09/09 11:04:54;;;;;;;2.63;0.90;;;28.30;59.50;;;;;;5055764;28;20806;-63
2022/09/09 11:07:29;;;;;;;3.60;1.00;;;27.50;60.40;;;;;;5055372;28;20443;-63
2022/09/09 11:10:00;;;;;;;1.70;1.00;;;26.70;64.80;;;;;;5054953;28;20542;-63
2022/09/09 11:12:30;;;;;;;2.87;1.20;;;26.10;68.50;;;;;;5054889;28;20503;-63
2022/09/09 11:15:02;;;;;;;1.60;0.90;;;25.50;73.30;;;;;;5054990;28;20450;-63
2022/09/09 11:17:37;;;;;;;3.50;1.63;;;24.80;74.50;;;;;;5054423;28;20900;-64
2022/09/09 11:20:07;;;;;;;2.53;1.00;;;24.40;75.90;;;;;;5054773;28;20438;-63
2022/09/09 11:22:40;;;;;;;4.90;1.93;;;24.00;79.30;;;;;;5054441;28;20475;-63
2022/09/09 11:25:14;;;;;;;5.90;1.23;;;23.60;83.80;;;;;;5054497;28;20439;-63
2022/09/09 11:27:54;;;;;;;7.13;2.07;;;23.10;90.40;;;;;;5054683;28;20436;-63
2022/09/09 11:30:25;;;;;;;4.03;1.60;;;22.50;96.30;;;;;;5054667;28;20847;-63
2022/09/09 11:33:23;;;;;;;5.63;1.60;;;21.70;99.90;;;;;;5054942;28;20475;-63
2022/09/09 11:36:08;;;;;;;3.70;1.70;;;21.10;99.90;;;;;;5054871;28;20451;-62
2022/09/09 11:38:45;;;;;;;3.70;1.63;;;20.50;99.90;;;;;;5054612;28;20963;-63
2022/09/09 11:41:13;;;;;;;1.70;1.10;;;20.00;99.90;;;;;;5053874;28;20981;-63
2022/09/09 11:43:42;;;;;;;3.30;1.40;;;19.70;99.90;;;;;;5054247;28;20458;-63
2022/09/09 11:46:12;;;;;;;10.33;1.10;;;19.40;99.90;;;;;;5054212;28;20451;-63
2022/09/09 11:48:43;;;;;;;1.00;0.90;;;19.20;99.90;;;;;;5054235;28;20458;-63
2022/09/09 11:51:12;;;;;;;5.50;1.30;;;19.10;99.90;;;;;;5054115;28;20529;-63
2022/09/09 11:53:49;;;;;;;1.43;0.80;;;19.00;99.90;;;;;;5054204;28;20486;-63
2022/09/09 11:56:27;;;;;;;1.03;0.90;;;19.00;99.90;;;;;;5054027;28;20477;-63
2022/09/09 11:59:00;;;;;;;2.33;0.80;;;19.10;99.90;;;;;;5054058;28;20439;-62
2022/09/09 12:01:50;;;;;;;1.73;0.60;;;19.20;99.90;;;;;;5053616;28;20487;-63
2022/09/09 12:04:37;;;;;;;1.00;0.90;;;19.40;99.90;;;;;;5053849;28;20439;-62
2022/09/09 12:07:05;;;;;;;10.80;2.10;;;19.60;99.90;;;;;;5053916;28;20445;-61
2022/09/09 12:09:42;;;;;;;1.27;0.80;;;19.80;99.90;;;;;;5053854;28;20454;-62
2022/09/09 12:12:27;;;;;;;1.30;1.03;;;20.20;99.90;;;;;;5053703;28;20467;-62
2022/09/09 12:15:23;;;;;;;0.70;0.70;;;20.40;99.90;;;;;;5053801;28;20432;-62
2022/09/09 12:17:53;;;;;;;5.17;0.77;;;20.60;99.90;;;;;;5054558;28;20454;-62
2022/09/09 12:20:22;;;;;;;0.70;0.70;;;20.80;99.90;;;;;;5053603;28;20802;-62
2022/09/09 12:23:11;;;;;;;1.63;0.73;;;21.00;99.90;;;;;;5053668;28;20830;-62
2022/09/09 12:25:55;;;;;;;4.60;0.97;;;21.40;99.90;;;;;;5053637;28;20514;-62
2022/09/09 12:28:28;;;;;;;1.93;0.80;;;22.00;99.90;;;;;;5053726;28;20431;-62
2022/09/09 12:31:00;;;;;;;2.17;0.73;;;22.40;99.90;;;;;;5053308;28;21048;-62
2022/09/09 12:33:36;;;;;;;2.97;1.63;;;22.90;99.90;;;;;;5053146;28;20917;-61
2022/09/09 12:36:05;;;;;;;3.20;0.90;;;23.10;99.90;;;;;;5058645;28;20446;-62
2022/09/09 12:38:36;;;;;;;3.67;0.80;;;23.20;99.90;;;;;;5057569;28;20522;-62
2022/09/09 12:41:03;;;;;;;0.97;0.60;;;23.50;99.90;;;;;;5057475;28;20470;-62
2022/09/09 12:43:30;;;;;;;1.57;0.80;;;23.70;99.90;;;;;;5057415;28;20829;-62
2022/09/09 12:46:00;;;;;;;1.67;0.70;;;24.00;99.20;;;;;;5057698;28;20504;-62
2022/09/09 12:48:34;;;;;;;1.07;0.80;;;24.30;99.60;;;;;;5057416;28;20462;-62
2022/09/09 12:51:01;;;;;;;2.00;1.00;;;24.40;96.60;;;;;;5056833;28;20977;-62
2022/09/09 12:53:31;;;;;;;0.90;0.90;;;24.40;94.00;;;;;;5057123;28;20447;-62
2022/09/09 12:56:00;;;;;;;1.50;0.80;;;24.30;92.00;;;;;;5056929;28;20992;-62
2022/09/09 12:58:28;;;;;;;0.70;0.60;;;24.10;91.60;;;;;;5057389;28;20455;-62
2022/09/09 13:00:57;;;;;;;1.00;0.80;;;23.80;91.70;;;;;;5056848;28;20990;-62
2022/09/09 13:03:24;;;;;;;2.00;0.70;;;23.60;91.90;;;;;;5056998;28;20478;-62
2022/09/09 13:05:54;;;;;;;0.57;0.50;;;23.70;93.60;;;;;;5056933;28;20541;-62
2022/09/09 13:08:21;;;;;;;0.80;0.50;;;24.00;93.10;;;;;;5057417;28;20477;-62
2022/09/09 13:10:53;;;;;;;1.50;0.93;;;24.00;91.90;;;;;;5057764;28;20475;-62
2022/09/09 13:13:22;;;;;;;2.17;1.60;;;24.10;94.10;;;;;;5057027;28;20530;-61
2022/09/09 13:15:51;;;;;;;1.30;0.77;;;24.20;93.10;;;;;;5056969;28;20451;-62
2022/09/09 13:18:22;;;;;;;0.50;0.50;;;24.50;92.80;;;;;;5056952;28;20506;-62
2022/09/09 13:20:50;;;;;;;0.60;0.60;;;24.60;91.40;;;;;;5057077;28;20474;-62
2022/09/09 13:23:20;;;;;;;0.97;0.53;;;24.70;93.10;;;;;;5056742;28;20520;-61
2022/09/09 13:25:55;;;;;;;1.47;0.77;;;24.70;91.30;;;;;;5056540;28;20977;-62
2022/09/09 13:28:24;;;;;;;1.03;0.97;;;25.00;92.30;;;;;;5056508;28;20805;-62
2022/09/09 13:30:59;;;;;;;0.80;0.70;;;25.20;90.60;;;;;;5056582;28;20478;-62
2022/09/09 13:33:33;;;;;;;2.80;0.90;;;25.30;88.20;;;;;;5056935;28;20865;-62
2022/09/09 13:36:03;;;;;;;1.67;0.77;;;25.20;88.70;;;;;;5057350;28;20787;-61
2022/09/09 13:38:34;;;;;;;0.77;0.60;;;25.20;88.80;;;;;;5057042;28;20455;-62
2022/09/09 13:41:04;;;;;;;1.27;0.70;;;25.30;86.30;;;;;;5056449;28;20799;-62
2022/09/09 13:43:34;;;;;;;1.87;0.80;;;25.50;85.80;;;;;;5056330;28;20524;-62
2022/09/09 13:46:03;;;;;;;0.90;0.70;;;25.80;82.90;;;;;;5055473;28;20505;-62
2022/09/09 13:48:31;;;;;;;0.93;0.80;;;25.70;81.50;;;;;;5056549;28;20454;-62
2022/09/09 13:51:00;;;;;;;1.83;0.67;;;25.80;80.00;;;;;;5056086;28;20988;-62
2022/09/09 13:53:27;;;;;;;0.73;0.73;;;25.70;80.90;;;;;;5055978;28;20504;-62
2022/09/09 13:55:56;;;;;;;2.70;0.90;;;25.40;79.50;;;;;;5056168;28;20454;-63
2022/09/09 13:58:24;;;;;;;1.50;0.87;;;25.50;79.20;;;;;;5056276;28;20455;-62
2022/09/09 14:00:52;;;;;;;1.67;0.80;;;25.30;82.10;;;;;;5055943;28;20514;-63
2022/09/09 14:03:19;;;;;;;2.20;0.83;;;25.20;78.50;;;;;;5055894;28;20808;-62
2022/09/09 14:05:46;;;;;;;1.07;0.70;;;25.00;79.40;;;;;;5055750;28;20934;-62
2022/09/09 14:08:23;;;;;;;1.53;0.80;;;24.90;79.30;;;;;;5055976;28;20526;-62
2022/09/09 14:10:50;;;;;;;1.03;0.70;;;24.80;77.90;;;;;;5055856;28;20477;-62
2022/09/09 14:13:18;;;;;;;1.57;0.80;;;24.90;81.00;;;;;;5055855;28;20446;-62
2022/09/09 14:15:45;;;;;;;1.63;1.33;;;25.20;77.30;;;;;;5055708;28;20451;-62
2022/09/09 14:18:13;;;;;;;0.73;0.70;;;25.30;76.30;;;;;;5055632;28;20520;-62
2022/09/09 14:20:40;;;;;;;0.83;0.63;;;25.40;77.50;;;;;;5055661;28;20563;-63
2022/09/09 14:23:10;;;;;;;2.50;0.80;;;25.40;76.90;;;;;;5055513;28;20475;-63
2022/09/09 14:25:37;;;;;;;1.37;0.80;;;25.30;75.10;;;;;;5055632;28;20861;-62
2022/09/09 14:28:04;;;;;;;1.53;1.00;;;25.10;75.40;;;;;;5055562;28;20455;-62
2022/09/09 14:30:32;;;;;;;1.50;0.70;;;25.10;75.80;;;;;;5055488;28;20451;-62
2022/09/09 14:32:59;;;;;;;1.00;0.70;;;25.10;74.80;;;;;;5055448;28;20452;-62
2022/09/09 14:35:26;;;;;;;1.57;0.93;;;25.00;74.60;;;;;;5055598;28;20950;-63
2022/09/09 14:37:53;;;;;;;2.93;0.90;;;25.00;75.70;;;;;;5055403;28;20505;-63
2022/09/09 14:40:20;;;;;;;1.83;1.10;;;25.00;75.60;;;;;;5055518;28;20509;-63
2022/09/09 14:42:46;;;;;;;2.03;0.70;;;24.70;75.70;;;;;;5057242;28;20483;-61
2022/09/09 14:45:13;;;;;;;1.87;0.80;;;24.60;75.30;;;;;;5055273;28;20455;-63
2022/09/09 14:47:41;;;;;;;1.73;0.70;;;24.40;78.10;;;;;;5055188;28;20895;-63
2022/09/09 14:50:08;;;;;;;1.70;0.70;;;24.30;77.70;;;;;;5055241;28;20509;-63
2022/09/09 14:52:35;;;;;;;1.47;0.67;;;24.10;77.40;;;;;;5055142;28;20463;-63
2022/09/09 14:55:02;;;;;;;1.70;0.90;;;23.90;77.10;;;;;;5055188;28;20462;-63
2022/09/09 14:57:28;;;;;;;1.27;0.60;;;23.80;75.80;;;;;;5054242;28;20504;-63
2022/09/09 14:59:56;;;;;;;1.73;0.87;;;23.70;78.40;;;;;;5054886;28;20941;-63
2022/09/09 15:02:23;;;;;;;3.40;0.80;;;23.60;76.20;;;;;;5054713;28;20479;-63
2022/09/09 15:04:52;;;;;;;0.83;0.80;;;23.50;77.70;;;;;;5055212;28;20493;-63
2022/09/09 15:07:19;;;;;;;3.33;0.70;;;23.40;78.00;;;;;;5054462;28;20938;-63
2022/09/09 15:09:47;;;;;;;1.00;0.67;;;23.40;78.40;;;;;;5054748;28;20438;-63
2022/09/09 15:12:14;;;;;;;1.23;0.80;;;23.30;78.90;;;;;;5054659;28;20557;-63
2022/09/09 15:14:40;;;;;;;1.13;0.60;;;23.30;80.40;;;;;;5055598;28;20447;-63
2022/09/09 15:17:07;;;;;;;2.63;0.70;;;23.50;80.00;;;;;;5054626;28;20529;-63
2022/09/09 15:19:34;;;;;;;0.70;0.67;;;23.70;79.40;;;;;;5054801;28;20926;-63
2022/09/09 15:22:02;;;;;;;1.33;0.60;;;23.80;78.80;;;;;;5054496;28;20467;-63
2022/09/09 15:24:28;;;;;;;5.67;0.80;;;23.70;78.00;;;;;;5054439;28;20529;-63
2022/09/09 15:26:56;;;;;;;1.47;0.80;;;23.70;81.30;;;;;;5054469;28;20447;-63
2022/09/09 15:29:23;;;;;;;0.87;0.50;;;23.70;80.00;;;;;;5054466;28;20451;-63
2022/09/09 15:31:49;;;;;;;1.87;0.57;;;23.50;76.70;;;;;;5054377;28;20525;-64
2022/09/09 15:34:17;;;;;;;3.03;0.50;;;23.40;78.30;;;;;;5054468;28;20505;-64
2022/09/09 15:36:45;;;;;;;1.70;0.53;;;23.40;77.90;;;;;;5054343;28;20451;-64
2022/09/09 15:39:16;;;;;;;1.07;0.57;;;23.40;78.40;;;;;;5054393;28;20463;-64
2022/09/09 15:41:43;;;;;;;0.50;0.50;;;23.40;79.40;;;;;;5054495;28;20537;-63
2022/09/09 15:44:11;;;;;;;0.70;0.70;;;23.40;77.40;;;;;;5054492;28;20543;-63
2022/09/09 15:46:40;;;;;;;1.90;0.60;;;23.40;78.60;;;;;;5053848;28;20875;-63
2022/09/09 15:49:10;;;;;;;1.80;0.80;;;23.40;77.00;;;;;;5054129;28;20545;-63
2022/09/09 15:51:38;;;;;;;1.70;0.80;;;23.30;77.30;;;;;;5054019;28;20498;-64
2022/09/09 15:54:05;;;;;;;0.83;0.70;;;23.20;77.30;;;;;;5054049;28;20448;-64
2022/09/09 15:56:34;;;;;;;3.40;0.60;;;23.20;78.60;;;;;;5054024;28;20454;-64
2022/09/09 15:59:02;;;;;;;2.47;0.60;;;23.10;78.50;;;;;;5053915;28;20455;-64
2022/09/09 16:01:30;;;;;;;0.93;0.60;;;22.90;76.90;;;;;;5053693;28;20853;-64
2022/09/09 16:03:57;;;;;;;0.90;0.77;;;22.70;78.10;;;;;;5053708;28;20487;-64
2022/09/09 16:06:28;;;;;;;0.70;0.70;;;22.60;79.80;;;;;;5053646;28;20866;-63
2022/09/09 16:08:56;;;;;;;1.90;0.70;;;22.60;80.90;;;;;;5053319;28;20435;-63
2022/09/09 16:11:24;;;;;;;0.60;0.60;;;22.50;82.90;;;;;;5053563;28;20482;-63
2022/09/09 16:13:53;;;;;;;2.40;0.90;;;22.50;84.10;;;;;;5053916;28;20525;-63
2022/09/09 16:16:23;;;;;;;0.73;0.70;;;22.50;85.00;;;;;;5053988;28;20451;-63
2022/09/09 16:18:52;;;;;;;2.37;0.80;;;22.40;85.30;;;;;;5053648;28;20481;-63
2022/09/09 16:21:23;;;;;;;0.73;0.67;;;22.40;85.90;;;;;;5053334;28;20962;-63
2022/09/09 16:23:53;;;;;;;2.17;0.70;;;22.40;84.90;;;;;;5053636;28;20456;-62
2022/09/09 16:26:20;;;;;;;2.03;0.70;;;22.30;86.10;;;;;;5053517;28;20455;-63
2022/09/09 16:28:47;;;;;;;1.50;0.70;;;22.20;85.60;;;;;;5053569;28;20450;-63
2022/09/09 16:31:17;;;;;;;1.70;0.47;;;22.00;86.90;;;;;;5053781;28;20474;-62
2022/09/09 16:33:44;;;;;;;3.40;0.53;;;21.60;82.70;;;;;;5053617;28;20509;-62
2022/09/09 16:36:13;;;;;;;0.93;0.70;;;21.20;82.90;;;;;;5053618;28;20855;-63
2022/09/09 16:38:40;;;;;;;2.20;2.10;;;20.90;86.30;;;;;;5053749;28;20451;-62
2022/09/09 16:41:08;;;;;;;2.73;1.10;;;20.60;92.90;;;;;;5053830;28;20482;-62
2022/09/09 16:43:36;;;;;;;0.93;0.80;;;20.20;98.60;;;;;;5053542;28;20552;-62
2022/09/09 16:46:03;;;;;;;1.70;0.80;;;19.80;99.90;;;;;;5053506;28;20454;-62
2022/09/09 16:48:33;;;;;;;1.17;0.60;;;19.40;99.90;;;;;;5053444;28;20447;-62
2022/09/09 16:51:03;;;;;;;3.33;0.50;;;19.20;99.90;;;;;;5053697;28;20562;-63
2022/09/09 16:53:30;;;;;;;4.43;0.80;;;18.90;99.90;;;;;;5053759;28;20451;-62
2022/09/09 16:55:57;;;;;;;2.20;0.70;;;18.80;99.90;;;;;;5053460;28;20447;-62
2022/09/09 16:58:23;;;;;;;0.60;0.60;;;18.70;99.90;;;;;;5053791;28;20459;-62
2022/09/09 17:00:51;;;;;;;0.50;0.50;;;18.50;99.90;;;;;;5053377;28;20490;-62